createdAt,value
2022-12-22T00:00:29.277Z,57.67
2022-12-22T00:03:35.132Z,57.72
2022-12-22T00:06:20.456Z,57.57
2022-12-22T00:09:06.183Z,57.65
2022-12-22T00:11:51.460Z,57.79
2022-12-22T00:14:36.724Z,57.70
2022-12-22T00:17:22.004Z,57.97
2022-12-22T00:20:09.019Z,58.01
2022-12-22T00:22:56.478Z,57.79
2022-12-22T00:25:41.897Z,57.71
2022-12-22T00:28:31.964Z,57.92
2022-12-22T00:31:17.786Z,57.74
2022-12-22T00:34:03.065Z,57.99
2022-12-22T00:36:48.877Z,57.83
2022-12-22T00:39:34.066Z,58.14
2022-12-22T00:42:19.979Z,58.06
2022-12-22T00:45:05.230Z,57.62
2022-12-22T00:47:50.861Z,57.72
2022-12-22T00:50:36.245Z,57.53
2022-12-22T00:53:21.876Z,57.82
2022-12-22T00:56:07.247Z,57.98
2022-12-22T00:58:52.852Z,57.91
2022-12-22T01:01:38.262Z,57.89
2022-12-22T01:04:24.060Z,57.63
2022-12-22T01:07:09.394Z,57.81
2022-12-22T01:09:55.191Z,57.75
2022-12-22T01:12:42.048Z,57.87
2022-12-22T01:15:37.958Z,58.09
2022-12-22T01:18:23.776Z,58.31
2022-12-22T01:21:09.524Z,58.18
2022-12-22T01:23:55.409Z,57.88
2022-12-22T01:26:40.948Z,58.09
2022-12-22T01:29:26.403Z,58.13
2022-12-22T01:32:11.997Z,57.92
2022-12-22T01:34:57.506Z,58.17
2022-12-22T01:37:43.180Z,58.29
2022-12-22T01:40:42.275Z,57.95
2022-12-22T01:43:41.073Z,57.74
2022-12-22T01:46:59.878Z,57.83
2022-12-22T01:50:00.310Z,57.56
2022-12-22T01:52:56.189Z,57.50
2022-12-22T01:55:42.504Z,57.93
2022-12-22T01:58:36.080Z,58.06
2022-12-22T02:01:21.869Z,58.38
2022-12-22T02:04:07.132Z,58.43
2022-12-22T02:06:59.963Z,58.24
2022-12-22T02:10:09.462Z,58.05
2022-12-22T02:12:57.781Z,57.73
2022-12-22T02:16:04.172Z,58.17
2022-12-22T02:18:57.593Z,58.05
2022-12-22T02:21:43.575Z,58.24
2022-12-22T02:24:37.406Z,58.01
2022-12-22T02:27:22.644Z,58.03
2022-12-22T02:30:11.516Z,58.23
2022-12-22T02:33:02.314Z,58.22
2022-12-22T02:36:03.165Z,57.88
2022-12-22T02:39:00.954Z,58.17
2022-12-22T02:41:57.445Z,58.11
2022-12-22T02:45:01.778Z,57.90
2022-12-22T02:47:55.876Z,57.98
2022-12-22T02:50:51.949Z,57.98
2022-12-22T02:53:37.645Z,57.67
2022-12-22T02:56:26.995Z,57.97
2022-12-22T02:59:12.843Z,58.13
2022-12-22T03:01:59.289Z,58.00
2022-12-22T03:04:45.199Z,57.98
2022-12-22T03:07:30.992Z,58.24
2022-12-22T03:10:16.736Z,58.19
2022-12-22T03:13:02.111Z,57.91
2022-12-22T03:15:47.876Z,57.56
2022-12-22T03:18:33.204Z,58.13
2022-12-22T03:21:18.964Z,57.72
2022-12-22T03:24:04.300Z,58.32
2022-12-22T03:26:33.463Z,58.14
2022-12-22T03:29:00.179Z,58.43
2022-12-22T03:31:27.775Z,57.98
2022-12-22T03:33:54.794Z,57.67
2022-12-22T03:36:21.893Z,58.09
2022-12-22T03:38:48.615Z,58.20
2022-12-22T03:41:34.251Z,57.97
2022-12-22T03:44:19.753Z,58.41
2022-12-22T03:46:46.898Z,58.05
2022-12-22T03:49:13.919Z,58.01
2022-12-22T03:51:44.604Z,58.11
2022-12-22T03:54:12.851Z,58.29
2022-12-22T03:56:40.000Z,58.08
2022-12-22T03:59:06.738Z,57.90
2022-12-22T04:01:34.389Z,58.21
2022-12-22T04:04:01.211Z,58.50
2022-12-22T04:06:28.235Z,58.27
2022-12-22T04:08:55.163Z,58.76
2022-12-22T04:11:40.649Z,58.27
2022-12-22T04:14:07.548Z,58.20
2022-12-22T04:16:34.593Z,58.27
2022-12-22T04:19:01.417Z,58.04
2022-12-22T04:21:28.489Z,58.37
2022-12-22T04:23:55.391Z,58.56
2022-12-22T04:26:23.438Z,58.52
2022-12-22T04:28:50.789Z,58.40
2022-12-22T04:31:18.015Z,58.09
2022-12-22T04:33:45.122Z,58.36
2022-12-22T04:36:12.329Z,58.04
2022-12-22T04:38:39.192Z,58.28
2022-12-22T04:41:06.417Z,58.51
2022-12-22T04:43:33.344Z,57.95
2022-12-22T04:46:00.488Z,57.97
2022-12-22T04:48:28.253Z,58.35
2022-12-22T04:50:56.751Z,58.29
2022-12-22T04:53:23.621Z,58.62
2022-12-22T04:56:00.929Z,58.51
2022-12-22T04:58:28.012Z,58.35
2022-12-22T05:00:55.296Z,58.54
2022-12-22T05:03:22.232Z,58.73
2022-12-22T05:05:49.355Z,58.62
2022-12-22T05:08:16.096Z,58.38
2022-12-22T05:10:43.154Z,58.33
2022-12-22T05:13:09.990Z,58.17
2022-12-22T05:15:37.901Z,58.17
2022-12-22T05:18:04.829Z,58.39
2022-12-22T05:20:32.137Z,58.26
2022-12-22T05:22:58.978Z,58.32
2022-12-22T05:25:29.853Z,58.29
2022-12-22T05:27:59.801Z,58.27
2022-12-22T05:30:27.207Z,58.38
2022-12-22T05:32:54.018Z,58.24
2022-12-22T05:35:21.061Z,58.36
2022-12-22T05:37:47.891Z,58.67
2022-12-22T05:40:14.913Z,58.09
2022-12-22T05:42:41.624Z,58.14
2022-12-22T05:45:16.756Z,58.52
2022-12-22T05:47:47.355Z,58.65
2022-12-22T05:50:15.778Z,58.84
2022-12-22T05:52:42.656Z,58.57
2022-12-22T05:55:10.012Z,58.72
2022-12-22T05:57:36.823Z,58.46
2022-12-22T06:00:05.878Z,58.48
2022-12-22T06:02:32.877Z,58.51
2022-12-22T06:05:00.179Z,58.64
2022-12-22T06:07:26.900Z,58.63
2022-12-22T06:09:53.912Z,58.66
2022-12-22T06:12:20.728Z,58.77
2022-12-22T06:14:47.810Z,58.57
2022-12-22T06:17:14.521Z,58.46
2022-12-22T06:19:41.560Z,58.58
2022-12-22T06:22:08.366Z,58.46
2022-12-22T06:24:35.388Z,58.89
2022-12-22T06:27:02.126Z,58.57
2022-12-22T06:29:29.172Z,58.63
2022-12-22T06:31:55.911Z,58.49
2022-12-22T06:34:23.003Z,58.53
2022-12-22T06:36:49.904Z,58.58
2022-12-22T06:39:17.176Z,58.62
2022-12-22T06:42:02.521Z,58.46
2022-12-22T06:44:29.587Z,58.90
2022-12-22T06:46:56.407Z,58.67
2022-12-22T06:49:23.451Z,58.94
2022-12-22T06:51:50.163Z,58.94
2022-12-22T06:54:20.865Z,59.12
2022-12-22T06:56:52.430Z,59.05
2022-12-22T06:59:19.436Z,59.23
2022-12-22T07:01:46.243Z,59.07
2022-12-22T07:04:19.691Z,59.01
2022-12-22T07:06:47.758Z,58.83
2022-12-22T07:09:14.846Z,59.22
2022-12-22T07:11:41.675Z,58.93
2022-12-22T07:14:08.825Z,59.05
2022-12-22T07:16:35.653Z,58.95
2022-12-22T07:19:02.752Z,59.09
2022-12-22T07:21:29.553Z,59.06
2022-12-22T07:23:56.549Z,58.81
2022-12-22T07:26:23.264Z,58.80
2022-12-22T07:28:50.269Z,59.00
2022-12-22T07:31:17.726Z,59.05
2022-12-22T07:33:44.872Z,59.06
2022-12-22T07:36:12.689Z,59.06
2022-12-22T07:38:41.508Z,58.85
2022-12-22T07:41:28.945Z,58.86
2022-12-22T07:43:57.326Z,58.72
2022-12-22T07:46:24.544Z,59.17
2022-12-22T07:49:10.367Z,58.94
2022-12-22T07:51:38.312Z,59.25
2022-12-22T07:54:05.493Z,58.98
2022-12-22T07:56:32.305Z,58.92
2022-12-22T07:58:59.606Z,59.36
2022-12-22T08:01:26.457Z,59.14
2022-12-22T08:03:53.575Z,59.20
2022-12-22T08:06:20.511Z,59.22
2022-12-22T08:08:47.517Z,59.19
2022-12-22T08:11:14.358Z,59.13
2022-12-22T08:13:43.431Z,59.13
2022-12-22T08:16:11.643Z,59.36
2022-12-22T08:18:38.990Z,59.34
2022-12-22T08:21:06.166Z,59.13
2022-12-22T08:23:33.428Z,59.35
2022-12-22T08:26:07.906Z,59.33
2022-12-22T08:28:37.231Z,59.21
2022-12-22T08:31:04.140Z,59.38
2022-12-22T08:33:31.209Z,59.59
2022-12-22T08:36:02.690Z,59.47
2022-12-22T08:38:33.053Z,59.70
2022-12-22T08:40:59.766Z,59.63
2022-12-22T08:43:26.836Z,59.43
2022-12-22T08:45:53.614Z,59.30
2022-12-22T08:48:20.628Z,59.18
2022-12-22T08:50:47.322Z,59.20
2022-12-22T08:53:30.112Z,59.28
2022-12-22T08:56:01.149Z,59.18
2022-12-22T08:58:28.206Z,59.04
2022-12-22T09:00:54.959Z,59.33
2022-12-22T09:03:22.053Z,59.31
2022-12-22T09:05:48.822Z,59.36
2022-12-22T09:08:15.848Z,59.11
2022-12-22T09:10:43.968Z,59.28
2022-12-22T09:13:11.031Z,59.38
2022-12-22T09:15:37.852Z,59.39
2022-12-22T09:18:04.924Z,59.21
2022-12-22T09:20:31.966Z,59.43
2022-12-22T09:23:00.161Z,59.82
2022-12-22T09:25:27.486Z,59.68
2022-12-22T09:27:55.099Z,59.65
2022-12-22T09:30:21.850Z,59.67
2022-12-22T09:32:48.892Z,59.52
2022-12-22T09:35:15.694Z,59.91
2022-12-22T09:37:42.731Z,59.92
2022-12-22T09:40:10.087Z,59.96
2022-12-22T09:42:37.908Z,60.02
2022-12-22T09:45:05.303Z,59.85
2022-12-22T09:47:40.172Z,60.32
2022-12-22T09:50:11.984Z,60.14
2022-12-22T09:52:49.155Z,60.10
2022-12-22T09:55:25.935Z,60.38
2022-12-22T09:57:56.575Z,60.51
2022-12-22T10:00:28.320Z,60.09
2022-12-22T10:03:31.296Z,60.57
2022-12-22T10:06:28.425Z,60.11
2022-12-22T10:08:55.790Z,60.30
2022-12-22T10:11:22.653Z,60.59
2022-12-22T10:13:49.761Z,60.56
2022-12-22T10:16:21.907Z,60.77
2022-12-22T10:19:16.058Z,60.54
2022-12-22T10:21:46.936Z,60.66
2022-12-22T10:24:33.148Z,60.39
2022-12-22T10:26:59.890Z,60.53
2022-12-22T10:29:26.977Z,60.27
2022-12-22T10:32:05.003Z,60.38
2022-12-22T10:34:32.162Z,60.24
2022-12-22T10:37:00.331Z,60.38
2022-12-22T10:39:29.298Z,60.31
2022-12-22T10:42:08.522Z,60.63
2022-12-22T10:44:37.256Z,60.41
2022-12-22T10:47:20.449Z,60.24
2022-12-22T10:49:48.933Z,60.34
2022-12-22T10:52:31.035Z,60.38
2022-12-22T10:55:18.466Z,60.33
2022-12-22T10:57:45.261Z,60.04
2022-12-22T11:00:23.587Z,60.46
2022-12-22T11:03:11.921Z,60.27
2022-12-22T11:05:39.136Z,60.59
2022-12-22T11:08:18.987Z,60.45
2022-12-22T11:11:12.529Z,60.44
2022-12-22T11:13:39.374Z,60.40
2022-12-22T11:16:19.874Z,60.54
2022-12-22T11:18:52.632Z,60.78
2022-12-22T11:21:28.860Z,60.66
2022-12-22T11:24:07.702Z,60.59
2022-12-22T11:26:58.036Z,60.61
2022-12-22T11:30:04.735Z,60.62
2022-12-22T11:32:53.971Z,60.47
2022-12-22T11:35:33.007Z,60.90
2022-12-22T11:38:22.106Z,60.67
2022-12-22T11:40:53.460Z,60.55
2022-12-22T11:44:22.221Z,60.78
2022-12-22T11:46:58.101Z,60.71
2022-12-22T11:49:38.079Z,60.43
2022-12-22T11:52:10.838Z,60.72
2022-12-22T11:55:11.802Z,60.49
2022-12-22T11:57:49.306Z,60.86
2022-12-22T12:00:17.326Z,60.49
2022-12-22T12:03:09.008Z,60.30
2022-12-22T12:06:30.277Z,60.58
2022-12-22T12:09:26.037Z,60.47
2022-12-22T12:12:09.492Z,60.42
2022-12-22T12:14:46.271Z,60.58
2022-12-22T12:17:20.930Z,60.26
2022-12-22T12:20:00.503Z,60.18
2022-12-22T12:22:32.419Z,60.81
2022-12-22T12:25:03.593Z,60.72
2022-12-22T12:27:42.956Z,60.22
2022-12-22T12:33:37.018Z,60.75
2022-12-22T12:36:33.104Z,60.76
2022-12-22T12:39:08.014Z,60.62
2022-12-22T12:42:01.376Z,60.44
2022-12-22T12:44:31.471Z,60.43
2022-12-22T12:47:04.913Z,60.58
2022-12-22T12:49:38.637Z,60.57
2022-12-22T12:52:09.203Z,61.02
2022-12-22T12:54:40.279Z,60.77
2022-12-22T12:57:07.186Z,60.54
2022-12-22T12:59:40.299Z,60.62
2022-12-22T13:02:29.726Z,60.43
2022-12-22T13:05:13.903Z,60.69
2022-12-22T13:08:09.561Z,60.78
2022-12-22T13:10:44.619Z,60.71
2022-12-22T13:13:23.910Z,60.73
2022-12-22T13:16:00.308Z,60.32
2022-12-22T13:18:49.729Z,60.75
2022-12-22T13:24:25.908Z,60.68
2022-12-22T13:26:55.353Z,60.54
2022-12-22T13:29:22.156Z,60.71
2022-12-22T13:31:57.905Z,60.70
2022-12-22T13:35:04.959Z,60.32
2022-12-22T13:37:30.423Z,60.63
2022-12-22T13:40:10.489Z,60.40
2022-12-22T13:42:39.379Z,60.32
2022-12-22T13:45:12.146Z,60.27
2022-12-22T13:47:42.978Z,60.49
2022-12-22T13:50:20.011Z,60.26
2022-12-22T13:52:47.111Z,60.52
2022-12-22T13:55:15.644Z,60.41
2022-12-22T13:57:42.774Z,60.16
2022-12-22T14:00:27.803Z,60.28
2022-12-22T14:02:55.019Z,60.20
2022-12-22T14:05:22.107Z,60.32
2022-12-22T14:07:59.150Z,60.28
2022-12-22T14:10:28.250Z,60.23
2022-12-22T14:12:55.325Z,60.20
2022-12-22T14:15:22.172Z,60.25
2022-12-22T14:17:52.842Z,60.14
2022-12-22T14:20:35.720Z,60.46
2022-12-22T14:23:13.692Z,60.37
2022-12-22T14:25:41.505Z,60.50
2022-12-22T14:28:33.492Z,60.30
2022-12-22T14:31:08.467Z,60.26
2022-12-22T14:33:35.501Z,60.40
2022-12-22T14:36:19.366Z,60.51
2022-12-22T14:38:48.565Z,60.50
2022-12-22T14:41:42.905Z,60.16
2022-12-22T14:44:24.703Z,60.51
2022-12-22T14:47:20.580Z,60.40
2022-12-22T14:49:50.616Z,60.13
2022-12-22T14:52:33.260Z,60.15
2022-12-22T14:55:00.374Z,60.49
2022-12-22T14:57:38.478Z,60.15
2022-12-22T15:00:08.315Z,60.30
2022-12-22T15:02:40.594Z,60.23
2022-12-22T15:05:15.901Z,60.36
2022-12-22T15:10:40.232Z,60.13
2022-12-22T15:13:11.655Z,60.35
2022-12-22T15:15:38.695Z,60.53
2022-12-22T15:18:05.766Z,60.37
2022-12-22T15:20:38.972Z,60.57
2022-12-22T15:23:18.579Z,60.50
2022-12-22T15:25:45.874Z,60.22
2022-12-22T15:28:12.863Z,60.27
2022-12-22T15:30:40.017Z,60.08
2022-12-22T15:33:14.351Z,60.18
2022-12-22T15:35:41.524Z,60.03
2022-12-22T15:38:24.434Z,60.29
2022-12-22T15:40:51.682Z,60.49
2022-12-22T15:43:54.091Z,60.65
2022-12-22T15:46:06.245Z,60.28
2022-12-22T15:48:34.673Z,60.38
2022-12-22T15:51:05.979Z,60.27
2022-12-22T15:53:33.139Z,60.23
2022-12-22T15:56:00.325Z,60.13
2022-12-22T15:58:29.297Z,60.24
2022-12-22T16:00:56.640Z,60.13
2022-12-22T16:03:23.612Z,60.14
2022-12-22T16:05:52.789Z,59.73
2022-12-22T16:08:22.921Z,59.78
2022-12-22T16:10:49.955Z,60.63
2022-12-22T16:13:16.850Z,60.59
2022-12-22T16:15:43.943Z,60.50
2022-12-22T16:18:11.138Z,60.95
2022-12-22T16:20:41.515Z,60.70
2022-12-22T16:23:16.292Z,60.49
2022-12-22T16:25:43.936Z,60.58
2022-12-22T16:28:19.064Z,60.61
2022-12-22T16:30:46.233Z,60.20
2022-12-22T16:33:13.362Z,60.27
2022-12-22T16:35:40.602Z,60.42
2022-12-22T16:38:08.842Z,60.26
2022-12-22T16:40:46.744Z,60.58
2022-12-22T16:46:17.108Z,60.32
2022-12-22T16:48:49.722Z,60.21
2022-12-22T16:51:25.441Z,60.12
2022-12-22T16:53:52.493Z,60.25
2022-12-22T16:56:22.509Z,60.37
2022-12-22T16:58:49.415Z,60.28
2022-12-22T17:01:40.747Z,59.86
2022-12-22T17:04:13.638Z,60.13
2022-12-22T17:06:41.036Z,60.36
2022-12-22T17:09:11.884Z,60.07
2022-12-22T17:11:38.989Z,60.13
2022-12-22T17:14:31.337Z,60.02
2022-12-22T17:16:58.679Z,60.04
2022-12-22T17:19:25.512Z,60.20
2022-12-22T17:21:53.403Z,60.04
2022-12-22T17:24:25.910Z,60.21
2022-12-22T17:26:55.124Z,60.18
2022-12-22T17:29:23.609Z,59.91
2022-12-22T17:31:51.998Z,60.03
2022-12-22T17:34:18.942Z,59.92
2022-12-22T17:36:46.993Z,59.83
2022-12-22T17:39:14.630Z,59.91
2022-12-22T17:41:41.715Z,60.03
2022-12-22T17:44:19.679Z,60.08
2022-12-22T17:46:47.476Z,60.35
2022-12-22T17:49:14.755Z,61.13
2022-12-22T17:51:41.989Z,61.16
2022-12-22T17:54:18.119Z,60.80
2022-12-22T17:56:45.243Z,60.49
2022-12-22T17:59:12.232Z,60.65
2022-12-22T18:01:40.281Z,61.01
2022-12-22T18:04:10.208Z,60.97
2022-12-22T18:06:39.645Z,60.71
2022-12-22T18:09:06.891Z,60.55
2022-12-22T18:11:34.469Z,60.63
2022-12-22T18:14:01.326Z,60.42
2022-12-22T18:16:29.765Z,60.29
2022-12-22T18:18:56.739Z,60.43
2022-12-22T18:21:24.307Z,60.46
2022-12-22T18:23:51.385Z,60.47
2022-12-22T18:26:28.997Z,60.51
2022-12-22T18:28:55.921Z,60.24
2022-12-22T18:31:23.610Z,60.12
2022-12-22T18:33:51.054Z,60.11
2022-12-22T18:36:30.291Z,60.25
2022-12-22T18:38:57.336Z,60.06
2022-12-22T18:41:24.752Z,59.94
2022-12-22T18:43:51.547Z,59.86
2022-12-22T18:46:19.082Z,60.00
2022-12-22T18:48:45.942Z,59.68
2022-12-22T18:51:21.850Z,59.86
2022-12-22T18:53:51.658Z,59.79
2022-12-22T18:56:18.884Z,59.73
2022-12-22T18:58:46.287Z,59.91
2022-12-22T19:01:24.046Z,59.67
2022-12-22T19:03:51.551Z,59.72
2022-12-22T19:06:20.514Z,59.96
2022-12-22T19:08:48.258Z,59.82
2022-12-22T19:11:16.497Z,59.67
2022-12-22T19:13:45.240Z,59.66
2022-12-22T19:16:17.934Z,59.65
2022-12-22T19:18:44.874Z,59.74
2022-12-22T19:21:16.217Z,59.87
2022-12-22T19:23:43.999Z,59.79
2022-12-22T19:26:24.578Z,59.83
2022-12-22T19:28:52.636Z,59.64
2022-12-22T19:31:25.286Z,59.31
2022-12-22T19:33:52.199Z,59.25
2022-12-22T19:36:26.841Z,59.35
2022-12-22T19:39:02.766Z,59.56
2022-12-22T19:41:31.366Z,59.51
2022-12-22T19:43:58.184Z,59.28
2022-12-22T19:46:25.755Z,59.13
2022-12-22T19:48:52.618Z,59.38
2022-12-22T19:51:19.721Z,59.26
2022-12-22T19:53:46.511Z,59.14
2022-12-22T19:56:22.910Z,59.58
2022-12-22T19:58:50.169Z,59.29
2022-12-22T20:01:17.289Z,59.17
2022-12-22T20:03:44.429Z,59.29
2022-12-22T20:06:11.717Z,59.32
2022-12-22T20:08:38.591Z,59.05
2022-12-22T20:11:14.933Z,59.23
2022-12-22T20:13:42.080Z,59.33
2022-12-22T20:16:16.381Z,59.11
2022-12-22T20:18:43.601Z,59.63
2022-12-22T20:21:13.460Z,59.38
2022-12-22T20:23:40.343Z,59.25
2022-12-22T20:26:12.060Z,59.34
2022-12-22T20:28:39.541Z,59.34
2022-12-22T20:31:07.517Z,59.37
2022-12-22T20:33:35.051Z,59.49
2022-12-22T20:36:02.606Z,59.38
2022-12-22T20:38:37.801Z,59.29
2022-12-22T20:41:06.225Z,59.24
2022-12-22T20:43:33.235Z,59.42
2022-12-22T20:46:07.342Z,59.42
2022-12-22T20:49:04.526Z,59.42
2022-12-22T20:51:33.024Z,59.43
2022-12-22T20:54:00.084Z,59.54
2022-12-22T20:56:30.207Z,59.65
2022-12-22T20:58:57.667Z,59.34
2022-12-22T21:01:24.953Z,59.69
2022-12-22T21:03:52.158Z,59.68
2022-12-22T21:06:27.413Z,59.45
2022-12-22T21:08:55.376Z,59.38
2022-12-22T21:11:22.673Z,59.53
2022-12-22T21:13:49.907Z,59.48
2022-12-22T21:16:18.659Z,59.34
2022-12-22T21:18:45.693Z,59.52
2022-12-22T21:21:12.962Z,59.33
2022-12-22T21:23:39.866Z,59.43
2022-12-22T21:26:36.185Z,59.55
2022-12-22T21:29:06.633Z,59.40
2022-12-22T21:31:33.916Z,59.60
2022-12-22T21:34:00.789Z,59.30
2022-12-22T21:36:29.196Z,59.51
2022-12-22T21:38:58.711Z,59.28
2022-12-22T21:41:44.310Z,59.47
2022-12-22T21:44:12.671Z,59.43
2022-12-22T21:46:44.011Z,59.56
2022-12-22T21:49:19.946Z,59.45
2022-12-22T21:51:47.848Z,59.54
2022-12-22T21:54:15.043Z,59.52
2022-12-22T21:56:42.154Z,59.45
2022-12-22T21:59:08.969Z,59.37
2022-12-22T22:01:36.164Z,59.45
2022-12-22T22:04:03.152Z,59.53
2022-12-22T22:06:30.313Z,59.34
2022-12-22T22:08:57.158Z,59.72
2022-12-22T22:11:25.432Z,59.47
2022-12-22T22:13:52.912Z,59.39
2022-12-22T22:16:20.098Z,59.78
2022-12-22T22:18:47.503Z,59.71
2022-12-22T22:21:15.417Z,59.65
2022-12-22T22:23:42.344Z,59.35
2022-12-22T22:26:10.171Z,59.67
2022-12-22T22:28:37.017Z,59.64
2022-12-22T22:31:09.291Z,59.47
2022-12-22T22:33:36.206Z,59.56
2022-12-22T22:36:07.512Z,59.52
2022-12-22T22:38:34.509Z,59.59
2022-12-22T22:41:01.661Z,59.77
2022-12-22T22:43:28.460Z,59.78
2022-12-22T22:45:55.525Z,59.87
2022-12-22T22:48:22.766Z,59.62
2022-12-22T22:50:50.491Z,59.70
2022-12-22T22:53:17.248Z,59.57
2022-12-22T22:55:44.369Z,59.63
2022-12-22T22:58:11.669Z,59.73
2022-12-22T23:00:39.134Z,59.66
2022-12-22T23:03:06.049Z,59.76
2022-12-22T23:05:33.375Z,59.58
2022-12-22T23:08:00.145Z,59.62
2022-12-22T23:10:27.231Z,59.43
2022-12-22T23:12:54.605Z,59.57
2022-12-22T23:15:21.722Z,59.35
2022-12-22T23:17:52.433Z,59.44
2022-12-22T23:20:19.534Z,59.53
2022-12-22T23:22:46.310Z,59.77
2022-12-22T23:25:14.449Z,59.50
2022-12-22T23:27:41.153Z,59.82
2022-12-22T23:30:08.934Z,59.78
2022-12-22T23:32:35.705Z,59.68
2022-12-22T23:35:02.772Z,59.44
2022-12-22T23:37:29.552Z,59.34
2022-12-22T23:40:10.790Z,59.38
2022-12-22T23:42:43.426Z,59.50
2022-12-22T23:45:10.712Z,59.55
2022-12-22T23:47:37.471Z,59.36
2022-12-22T23:50:04.822Z,59.51
2022-12-22T23:52:31.599Z,59.55
2022-12-22T23:54:58.716Z,59.58
2022-12-22T23:57:25.508Z,59.29
2022-12-22T23:59:52.579Z,59.39
